Report METAR

 

KSJC - San Jose, California, USA
Distance from station: NE 14km
Dati ricevuti: 27/06/2022 03:53
Few Clouds
Few Clouds
 Vento da NO
Vento: NO 22 km/h
Temperatura: 23°C
P.to Rugiada: 14°C
Umidità: 57%
Barometro: 1015.2 hPa
Nuvole: Few Clouds
Visibility: 16 km
Cloud details: Few Clouds 3048 m
2022/06/27 01:53 KSJC 270153Z 32012KT 10SM FEW100 23/14 A2998 RMK AO2 SLP152 T02330139 $
KNUQ - Moffett Nas/Mtn, California, USA
Distance from station: N 14km
Dati ricevuti: 27/06/2022 04:35
Sereno
Sereno
 Vento da NNO
Vento: NNO 15 km/h, Raffica: 26 km/h
Temperatura: 18°C
P.to Rugiada: 14°C
Umidità: 78%
Barometro: 1015.9 hPa
Nuvole: Sereno
Visibility: 16 km
2022/06/27 02:35 KNUQ 270235Z AUTO 33008G14KT 10SM CLR 18/14 A3000 RMK AO2
 
KPAO - Palo Alto, California, USA
Distance from station: NNO 23km
Dati ricevuti: 27/06/2022 03:47
Sereno
Sereno
 Vento da NNO
Vento: NNO 30 km/h
Temperatura: 19°C
P.to Rugiada: 14°C
Umidità: 73%
Barometro: 1015.6 hPa
Nuvole: Sereno
Visibility: 16 km
2022/06/27 01:47 KPAO 270147Z 34016KT 10SM SKC 19/14 A2999
KRHV - San Jose/Reid, California, USA
Distance from station: ENE 19km
Dati ricevuti: 27/06/2022 03:47
Sereno
Sereno
 Vento da ONO
Vento: ONO 17 km/h
Temperatura: 26°C
P.to Rugiada: 13°C
Umidità: 45%
Barometro: 1015.2 hPa
Nuvole: Sereno
Visibility: 16 km
2022/06/27 01:47 KRHV 270147Z 29009KT 10SM SKC 26/13 A2998
 
KOAK - Oakland, California, USA
Distance from station: NNO 50km
Dati ricevuti: 27/06/2022 03:53
Parz. nuvoloso
Parz. nuvoloso
 Vento da O
Vento: O 26 km/h
Temperatura: 18°C
P.to Rugiada: 13°C
Umidità: 73%
Barometro: 1016.3 hPa
Nuvole: Parz. nuvoloso
Visibility: 16 km
Cloud details: Few Clouds 183 m
Parz. nuvoloso 6096 m
2022/06/27 01:53 KOAK 270153Z 28014KT 10SM FEW006 SCT200 18/13 A3001 RMK AO2 SLP161 T01780128
KSQL - San Carlos Airpo, California, USA
Distance from station: NO 34km
Dati ricevuti: 27/06/2022 02:47
DATI Obsoleti
Sereno
Sereno
 Vento da ONO
Vento: ONO 19 km/h
Temperatura: 23°C
P.to Rugiada: 12°C
Umidità: 50%
Barometro: 1015.6 hPa
Nuvole: Sereno
Visibility: 16 km
2022/06/27 00:47 KSQL 270047Z 30010KT 10SM CLR 23/12 A2999
 
KSFO - San Francisco, California, USA
Distance from station: NO 49km
Dati ricevuti: 27/06/2022 03:56
Few Clouds
Few Clouds
 Vento da ONO
Vento: ONO 39 km/h
Temperatura: 17°C
P.to Rugiada: 12°C
Umidità: 73%
Barometro: 1015.9 hPa
Nuvole: Few Clouds
Visibility: 16 km
Cloud details: Few Clouds 122 m
2022/06/27 01:56 KSFO 270156Z 30021KT 10SM FEW004 17/12 A3000 RMK AO2 PK WND 30029/0131 SLP158 T01670117
KE16 - San Martin, California, USA
Distance from station: ESE 43km
Dati ricevuti: 27/06/2022 04:35
Sereno
Sereno
 Vento da SSE
Vento: SSE 17 km/h
Temperatura: 24°C
P.to Rugiada: 10°C
Umidità: 41%
Barometro: 1015.9 hPa
Nuvole: Sereno
Visibility: 16 km
2022/06/27 02:35 KE16 270235Z AUTO 15009KT 10SM CLR 24/10 A3000 RMK AO2 PWINO PNO
 
KWVI - Watsonville, California, USA
Distance from station: SSE 44km
Dati ricevuti: 27/06/2022 04:15
Coperto
Coperto
 Vento da SSO
Vento: SSO 9 km/h
Temperatura: 13°C
P.to Rugiada: 12°C
Umidità: 94%
Barometro: 1017.3 hPa
Nuvole: Coperto
Visibility: 16 km
Cloud details: Coperto 122 m
2022/06/27 02:15 KWVI 270215Z AUTO 20005KT 10SM OVC004 13/12 A3004 RMK AO2 T01280117
KHAF - Half Moon Bay, California, USA
Distance from station: ONO 50km
Dati ricevuti: 27/06/2022 04:35
Coperto
Coperto
 Vento da N
Vento: N 11 km/h
Temperatura: 14°C
P.to Rugiada: 14°C
Umidità: 100%
Barometro: 1017.3 hPa
Nuvole: Coperto
Visibility: 13 km
Cloud details: Coperto 213 m
2022/06/27 02:35 KHAF 270235Z AUTO 35006KT 8SM OVC007 14/14 A3004 RMK AO2
 
KHWD - Hayward, California, USA
Distance from station: N 44km
Dati ricevuti: 27/06/2022 03:54
Sereno
Sereno
 Vento da ONO
Vento: ONO 22 km/h
Temperatura: 19°C
P.to Rugiada: 13°C
Umidità: 68%
Barometro: 1015.9 hPa
Nuvole: Sereno
Visibility: 16 km
2022/06/27 01:54 KHWD 270154Z 29012KT 10SM CLR 19/13 A3000 RMK AO2 SLP167 T01890133
KLVK - Livermore, California, USA
Distance from station: NNE 51km
Dati ricevuti: 27/06/2022 03:53
Sereno
Sereno
 Vento da ONO
Vento: ONO 20 km/h
Temperatura: 28°C
P.to Rugiada: 8°C
Umidità: 28%
Barometro: 1014.6 hPa
Nuvole: Sereno
Visibility: 16 km
2022/06/27 01:53 KLVK 270153Z 29011KT 10SM CLR 28/08 A2996 RMK AO2 SLP140 T02830083